sensor_id;sensor_type;location;lat;lon;timestamp;P1;durP1;ratioP1;P2;durP2;ratioP2
31732;SDS011;18312;51.486;7.144;2022-07-12T00:01:18;6.03;;;2.70;;
31732;SDS011;18312;51.486;7.144;2022-07-12T00:03:45;4.47;;;3.28;;
31732;SDS011;18312;51.486;7.144;2022-07-12T00:06:12;5.20;;;3.20;;
31732;SDS011;18312;51.486;7.144;2022-07-12T00:08:39;5.90;;;2.65;;
31732;SDS011;18312;51.486;7.144;2022-07-12T00:11:06;3.80;;;3.10;;
31732;SDS011;18312;51.486;7.144;2022-07-12T00:13:33;4.25;;;3.67;;
31732;SDS011;18312;51.486;7.144;2022-07-12T00:15:59;5.82;;;2.85;;
31732;SDS011;18312;51.486;7.144;2022-07-12T00:18:27;5.28;;;3.45;;
31732;SDS011;18312;51.486;7.144;2022-07-12T00:20:54;4.22;;;3.30;;
31732;SDS011;18312;51.486;7.144;2022-07-12T00:23:21;9.70;;;3.08;;
31732;SDS011;18312;51.486;7.144;2022-07-12T00:25:48;5.50;;;3.67;;
31732;SDS011;18312;51.486;7.144;2022-07-12T00:28:14;3.97;;;2.88;;
31732;SDS011;18312;51.486;7.144;2022-07-12T00:30:41;8.95;;;3.47;;
31732;SDS011;18312;51.486;7.144;2022-07-12T00:33:08;6.15;;;3.42;;
31732;SDS011;18312;51.486;7.144;2022-07-12T00:35:36;3.75;;;2.58;;
31732;SDS011;18312;51.486;7.144;2022-07-12T00:38:02;4.72;;;3.03;;
31732;SDS011;18312;51.486;7.144;2022-07-12T00:40:29;3.42;;;2.83;;
31732;SDS011;18312;51.486;7.144;2022-07-12T00:42:56;3.20;;;2.78;;
31732;SDS011;18312;51.486;7.144;2022-07-12T00:45:22;5.68;;;2.60;;
31732;SDS011;18312;51.486;7.144;2022-07-12T00:47:49;3.22;;;2.90;;
31732;SDS011;18312;51.486;7.144;2022-07-12T00:50:17;5.05;;;3.45;;
31732;SDS011;18312;51.486;7.144;2022-07-12T00:52:46;5.20;;;3.45;;
31732;SDS011;18312;51.486;7.144;2022-07-12T00:55:14;6.93;;;3.27;;
31732;SDS011;18312;51.486;7.144;2022-07-12T00:57:43;5.00;;;3.15;;
31732;SDS011;18312;51.486;7.144;2022-07-12T01:00:11;5.45;;;3.80;;
31732;SDS011;18312;51.486;7.144;2022-07-12T01:02:40;3.92;;;3.45;;
31732;SDS011;18312;51.486;7.144;2022-07-12T01:05:07;4.40;;;3.83;;
31732;SDS011;18312;51.486;7.144;2022-07-12T01:07:35;4.28;;;3.40;;
31732;SDS011;18312;51.486;7.144;2022-07-12T01:10:04;4.57;;;3.45;;
31732;SDS011;18312;51.486;7.144;2022-07-12T01:12:33;7.18;;;4.40;;
31732;SDS011;18312;51.486;7.144;2022-07-12T01:15:00;3.80;;;3.33;;
31732;SDS011;18312;51.486;7.144;2022-07-12T01:17:30;5.97;;;3.38;;
31732;SDS011;18312;51.486;7.144;2022-07-12T01:19:57;8.27;;;4.07;;
31732;SDS011;18312;51.486;7.144;2022-07-12T01:22:25;5.18;;;3.47;;
31732;SDS011;18312;51.486;7.144;2022-07-12T01:24:54;6.85;;;4.63;;
31732;SDS011;18312;51.486;7.144;2022-07-12T01:27:21;4.00;;;3.45;;
31732;SDS011;18312;51.486;7.144;2022-07-12T01:29:48;5.30;;;4.15;;
31732;SDS011;18312;51.486;7.144;2022-07-12T01:32:15;4.35;;;3.95;;
31732;SDS011;18312;51.486;7.144;2022-07-12T01:34:51;5.03;;;3.92;;
31732;SDS011;18312;51.486;7.144;2022-07-12T01:37:18;5.60;;;3.17;;
31732;SDS011;18312;51.486;7.144;2022-07-12T01:39:47;5.35;;;3.15;;
31732;SDS011;18312;51.486;7.144;2022-07-12T01:42:16;6.60;;;3.45;;
31732;SDS011;18312;51.486;7.144;2022-07-12T01:44:42;4.10;;;2.67;;
31732;SDS011;18312;51.486;7.144;2022-07-12T01:47:09;5.47;;;3.22;;
31732;SDS011;18312;51.486;7.144;2022-07-12T01:49:36;5.20;;;3.42;;
31732;SDS011;18312;51.486;7.144;2022-07-12T01:52:03;4.63;;;3.05;;
31732;SDS011;18312;51.486;7.144;2022-07-12T01:54:30;4.32;;;2.83;;
31732;SDS011;18312;51.486;7.144;2022-07-12T01:56:58;9.32;;;3.85;;
31732;SDS011;18312;51.486;7.144;2022-07-12T01:59:26;3.75;;;3.30;;
31732;SDS011;18312;51.486;7.144;2022-07-12T02:01:55;6.32;;;3.35;;
31732;SDS011;18312;51.486;7.144;2022-07-12T02:04:22;3.30;;;3.00;;
31732;SDS011;18312;51.486;7.144;2022-07-12T02:06:49;4.03;;;3.17;;
31732;SDS011;18312;51.486;7.144;2022-07-12T02:09:16;5.65;;;3.50;;
31732;SDS011;18312;51.486;7.144;2022-07-12T02:11:43;5.78;;;3.53;;
31732;SDS011;18312;51.486;7.144;2022-07-12T02:14:11;3.53;;;2.88;;
31732;SDS011;18312;51.486;7.144;2022-07-12T02:16:40;3.92;;;3.53;;
31732;SDS011;18312;51.486;7.144;2022-07-12T02:19:07;5.07;;;3.80;;
31732;SDS011;18312;51.486;7.144;2022-07-12T02:21:35;4.25;;;3.15;;
31732;SDS011;18312;51.486;7.144;2022-07-12T02:24:02;8.93;;;4.95;;
31732;SDS011;18312;51.486;7.144;2022-07-12T02:26:30;7.05;;;4.35;;
31732;SDS011;18312;51.486;7.144;2022-07-12T02:28:58;5.35;;;4.00;;
31732;SDS011;18312;51.486;7.144;2022-07-12T02:31:26;4.05;;;3.28;;
31732;SDS011;18312;51.486;7.144;2022-07-12T02:33:53;4.40;;;3.60;;
31732;SDS011;18312;51.486;7.144;2022-07-12T02:36:20;6.40;;;3.50;;
31732;SDS011;18312;51.486;7.144;2022-07-12T02:38:47;5.97;;;4.20;;
31732;SDS011;18312;51.486;7.144;2022-07-12T02:41:14;8.40;;;3.90;;
31732;SDS011;18312;51.486;7.144;2022-07-12T02:43:40;5.90;;;4.13;;
31732;SDS011;18312;51.486;7.144;2022-07-12T02:46:07;6.65;;;4.75;;
31732;SDS011;18312;51.486;7.144;2022-07-12T02:48:35;7.65;;;4.70;;
31732;SDS011;18312;51.486;7.144;2022-07-12T02:51:05;6.97;;;4.65;;
31732;SDS011;18312;51.486;7.144;2022-07-12T02:53:33;6.88;;;3.97;;
31732;SDS011;18312;51.486;7.144;2022-07-12T02:56:00;4.38;;;3.45;;
31732;SDS011;18312;51.486;7.144;2022-07-12T02:58:27;4.50;;;2.80;;
31732;SDS011;18312;51.486;7.144;2022-07-12T03:00:54;5.88;;;3.28;;
31732;SDS011;18312;51.486;7.144;2022-07-12T03:03:21;4.63;;;3.25;;
31732;SDS011;18312;51.486;7.144;2022-07-12T03:05:48;5.80;;;3.63;;
31732;SDS011;18312;51.486;7.144;2022-07-12T03:08:16;6.88;;;3.88;;
31732;SDS011;18312;51.486;7.144;2022-07-12T03:10:43;4.65;;;3.60;;
31732;SDS011;18312;51.486;7.144;2022-07-12T03:13:09;7.32;;;3.53;;
31732;SDS011;18312;51.486;7.144;2022-07-12T03:15:36;6.82;;;3.75;;
31732;SDS011;18312;51.486;7.144;2022-07-12T03:18:04;4.53;;;3.60;;
31732;SDS011;18312;51.486;7.144;2022-07-12T03:20:30;15.88;;;3.45;;
31732;SDS011;18312;51.486;7.144;2022-07-12T03:22:57;4.55;;;3.50;;
31732;SDS011;18312;51.486;7.144;2022-07-12T03:25:25;6.57;;;3.72;;
31732;SDS011;18312;51.486;7.144;2022-07-12T03:27:52;8.43;;;4.07;;
31732;SDS011;18312;51.486;7.144;2022-07-12T03:30:19;4.55;;;3.65;;
31732;SDS011;18312;51.486;7.144;2022-07-12T03:32:46;3.92;;;3.45;;
31732;SDS011;18312;51.486;7.144;2022-07-12T03:35:12;9.40;;;3.60;;
31732;SDS011;18312;51.486;7.144;2022-07-12T03:37:40;5.20;;;3.75;;
31732;SDS011;18312;51.486;7.144;2022-07-12T03:40:08;8.52;;;4.18;;
31732;SDS011;18312;51.486;7.144;2022-07-12T03:42:37;5.45;;;3.97;;
31732;SDS011;18312;51.486;7.144;2022-07-12T03:45:04;6.80;;;4.20;;
31732;SDS011;18312;51.486;7.144;2022-07-12T03:47:31;6.63;;;4.25;;
31732;SDS011;18312;51.486;7.144;2022-07-12T03:50:00;6.80;;;4.15;;
31732;SDS011;18312;51.486;7.144;2022-07-12T03:52:27;5.72;;;3.70;;
31732;SDS011;18312;51.486;7.144;2022-07-12T03:54:54;5.45;;;3.42;;
31732;SDS011;18312;51.486;7.144;2022-07-12T03:57:21;8.05;;;4.05;;
31732;SDS011;18312;51.486;7.144;2022-07-12T03:59:49;8.88;;;5.10;;
31732;SDS011;18312;51.486;7.144;2022-07-12T04:02:15;7.60;;;4.72;;
31732;SDS011;18312;51.486;7.144;2022-07-12T04:04:42;7.15;;;4.95;;
31732;SDS011;18312;51.486;7.144;2022-07-12T04:07:09;8.80;;;5.82;;
31732;SDS011;18312;51.486;7.144;2022-07-12T04:09:36;9.80;;;5.50;;
31732;SDS011;18312;51.486;7.144;2022-07-12T04:12:03;15.27;;;7.63;;
31732;SDS011;18312;51.486;7.144;2022-07-12T04:14:30;10.68;;;6.75;;
31732;SDS011;18312;51.486;7.144;2022-07-12T04:16:59;9.73;;;6.68;;
31732;SDS011;18312;51.486;7.144;2022-07-12T04:19:26;8.68;;;5.80;;
31732;SDS011;18312;51.486;7.144;2022-07-12T04:21:53;5.93;;;4.47;;
31732;SDS011;18312;51.486;7.144;2022-07-12T04:24:20;6.40;;;4.10;;
31732;SDS011;18312;51.486;7.144;2022-07-12T04:26:47;6.55;;;4.15;;
31732;SDS011;18312;51.486;7.144;2022-07-12T04:29:14;12.82;;;4.68;;
31732;SDS011;18312;51.486;7.144;2022-07-12T04:31:41;6.10;;;4.47;;
31732;SDS011;18312;51.486;7.144;2022-07-12T04:34:09;7.18;;;4.90;;
31732;SDS011;18312;51.486;7.144;2022-07-12T04:36:36;7.50;;;4.30;;
31732;SDS011;18312;51.486;7.144;2022-07-12T04:39:03;6.75;;;4.20;;
31732;SDS011;18312;51.486;7.144;2022-07-12T04:41:30;6.10;;;4.22;;
31732;SDS011;18312;51.486;7.144;2022-07-12T04:43:56;8.23;;;4.97;;
31732;SDS011;18312;51.486;7.144;2022-07-12T04:46:23;6.78;;;4.45;;
31732;SDS011;18312;51.486;7.144;2022-07-12T04:48:49;6.72;;;3.65;;
31732;SDS011;18312;51.486;7.144;2022-07-12T04:51:17;5.72;;;4.10;;
31732;SDS011;18312;51.486;7.144;2022-07-12T04:53:44;6.50;;;4.40;;
31732;SDS011;18312;51.486;7.144;2022-07-12T04:56:11;8.63;;;4.65;;
31732;SDS011;18312;51.486;7.144;2022-07-12T04:58:37;8.65;;;4.85;;
31732;SDS011;18312;51.486;7.144;2022-07-12T05:01:04;5.45;;;3.97;;
31732;SDS011;18312;51.486;7.144;2022-07-12T05:03:32;7.70;;;4.32;;
31732;SDS011;18312;51.486;7.144;2022-07-12T05:05:59;7.78;;;3.58;;
31732;SDS011;18312;51.486;7.144;2022-07-12T05:08:27;9.30;;;4.88;;
31732;SDS011;18312;51.486;7.144;2022-07-12T05:10:54;7.65;;;3.88;;
31732;SDS011;18312;51.486;7.144;2022-07-12T05:13:21;9.60;;;5.05;;
31732;SDS011;18312;51.486;7.144;2022-07-12T05:15:48;10.15;;;4.65;;
31732;SDS011;18312;51.486;7.144;2022-07-12T05:18:14;8.68;;;4.97;;
31732;SDS011;18312;51.486;7.144;2022-07-12T05:20:41;8.05;;;5.75;;
31732;SDS011;18312;51.486;7.144;2022-07-12T05:23:08;10.15;;;5.55;;
31732;SDS011;18312;51.486;7.144;2022-07-12T05:25:36;10.57;;;5.15;;
31732;SDS011;18312;51.486;7.144;2022-07-12T05:28:03;11.38;;;4.65;;
31732;SDS011;18312;51.486;7.144;2022-07-12T05:30:30;7.55;;;4.93;;
31732;SDS011;18312;51.486;7.144;2022-07-12T05:32:58;14.00;;;5.00;;
31732;SDS011;18312;51.486;7.144;2022-07-12T05:35:25;10.52;;;4.57;;
31732;SDS011;18312;51.486;7.144;2022-07-12T05:37:52;9.18;;;4.82;;
31732;SDS011;18312;51.486;7.144;2022-07-12T05:40:18;9.80;;;4.68;;
31732;SDS011;18312;51.486;7.144;2022-07-12T05:42:46;7.00;;;4.78;;
31732;SDS011;18312;51.486;7.144;2022-07-12T05:45:13;9.85;;;4.53;;
31732;SDS011;18312;51.486;7.144;2022-07-12T05:47:40;9.02;;;4.63;;
31732;SDS011;18312;51.486;7.144;2022-07-12T05:50:07;9.00;;;5.68;;
31732;SDS011;18312;51.486;7.144;2022-07-12T05:52:34;5.95;;;5.30;;
31732;SDS011;18312;51.486;7.144;2022-07-12T05:55:18;8.30;;;4.50;;
31732;SDS011;18312;51.486;7.144;2022-07-12T05:57:46;11.13;;;4.95;;
31732;SDS011;18312;51.486;7.144;2022-07-12T06:00:13;11.48;;;4.15;;
31732;SDS011;18312;51.486;7.144;2022-07-12T06:02:40;10.25;;;3.92;;
31732;SDS011;18312;51.486;7.144;2022-07-12T06:05:07;5.63;;;3.58;;
31732;SDS011;18312;51.486;7.144;2022-07-12T06:07:34;7.30;;;3.15;;
31732;SDS011;18312;51.486;7.144;2022-07-12T06:10:01;5.88;;;3.00;;
31732;SDS011;18312;51.486;7.144;2022-07-12T06:12:29;4.57;;;2.65;;
31732;SDS011;18312;51.486;7.144;2022-07-12T06:14:57;7.00;;;2.65;;
31732;SDS011;18312;51.486;7.144;2022-07-12T06:17:23;5.10;;;2.00;;
31732;SDS011;18312;51.486;7.144;2022-07-12T06:19:50;3.90;;;1.90;;
31732;SDS011;18312;51.486;7.144;2022-07-12T06:22:17;4.60;;;1.77;;
31732;SDS011;18312;51.486;7.144;2022-07-12T06:24:46;5.03;;;2.00;;
31732;SDS011;18312;51.486;7.144;2022-07-12T06:27:12;3.65;;;2.20;;
31732;SDS011;18312;51.486;7.144;2022-07-12T06:29:39;6.72;;;1.55;;
31732;SDS011;18312;51.486;7.144;2022-07-12T06:32:07;3.40;;;1.80;;
31732;SDS011;18312;51.486;7.144;2022-07-12T06:34:36;2.90;;;1.58;;
31732;SDS011;18312;51.486;7.144;2022-07-12T06:37:03;5.53;;;1.33;;
31732;SDS011;18312;51.486;7.144;2022-07-12T06:39:33;1.70;;;1.40;;
31732;SDS011;18312;51.486;7.144;2022-07-12T06:41:59;1.45;;;1.35;;
31732;SDS011;18312;51.486;7.144;2022-07-12T06:44:28;2.67;;;1.77;;
31732;SDS011;18312;51.486;7.144;2022-07-12T06:46:55;1.88;;;1.38;;
31732;SDS011;18312;51.486;7.144;2022-07-12T06:49:23;4.35;;;1.88;;
31732;SDS011;18312;51.486;7.144;2022-07-12T06:51:51;7.20;;;2.17;;
31732;SDS011;18312;51.486;7.144;2022-07-12T06:54:18;3.17;;;2.15;;
31732;SDS011;18312;51.486;7.144;2022-07-12T06:56:44;3.38;;;2.25;;
31732;SDS011;18312;51.486;7.144;2022-07-12T06:59:11;4.13;;;1.92;;
31732;SDS011;18312;51.486;7.144;2022-07-12T07:01:38;4.25;;;2.45;;
31732;SDS011;18312;51.486;7.144;2022-07-12T07:04:05;3.08;;;2.40;;
31732;SDS011;18312;51.486;7.144;2022-07-12T07:06:33;3.72;;;2.38;;
31732;SDS011;18312;51.486;7.144;2022-07-12T07:08:59;4.05;;;1.98;;
31732;SDS011;18312;51.486;7.144;2022-07-12T07:11:26;4.80;;;1.70;;
31732;SDS011;18312;51.486;7.144;2022-07-12T07:13:53;4.90;;;2.90;;
31732;SDS011;18312;51.486;7.144;2022-07-12T07:16:20;3.30;;;2.00;;
31732;SDS011;18312;51.486;7.144;2022-07-12T07:18:48;4.28;;;2.15;;
31732;SDS011;18312;51.486;7.144;2022-07-12T07:21:15;3.30;;;2.30;;
31732;SDS011;18312;51.486;7.144;2022-07-12T07:23:44;6.82;;;2.42;;
31732;SDS011;18312;51.486;7.144;2022-07-12T07:26:10;5.13;;;3.15;;
31732;SDS011;18312;51.486;7.144;2022-07-12T07:28:37;4.22;;;3.03;;
31732;SDS011;18312;51.486;7.144;2022-07-12T07:31:18;5.55;;;2.55;;
31732;SDS011;18312;51.486;7.144;2022-07-12T07:33:44;4.63;;;2.55;;
31732;SDS011;18312;51.486;7.144;2022-07-12T07:36:11;3.55;;;2.70;;
31732;SDS011;18312;51.486;7.144;2022-07-12T07:38:38;2.45;;;2.05;;
31732;SDS011;18312;51.486;7.144;2022-07-12T07:41:07;2.53;;;1.70;;
31732;SDS011;18312;51.486;7.144;2022-07-12T07:43:33;2.10;;;1.70;;
31732;SDS011;18312;51.486;7.144;2022-07-12T07:46:01;3.13;;;1.63;;
31732;SDS011;18312;51.486;7.144;2022-07-12T07:48:27;3.40;;;1.88;;
31732;SDS011;18312;51.486;7.144;2022-07-12T07:50:54;2.10;;;1.63;;
31732;SDS011;18312;51.486;7.144;2022-07-12T07:53:21;3.10;;;2.00;;
31732;SDS011;18312;51.486;7.144;2022-07-12T07:55:49;2.33;;;1.83;;
31732;SDS011;18312;51.486;7.144;2022-07-12T07:58:17;2.30;;;1.60;;
31732;SDS011;18312;51.486;7.144;2022-07-12T08:00:45;3.45;;;1.98;;
31732;SDS011;18312;51.486;7.144;2022-07-12T08:03:12;3.13;;;1.92;;
31732;SDS011;18312;51.486;7.144;2022-07-12T08:05:39;2.13;;;1.80;;
31732;SDS011;18312;51.486;7.144;2022-07-12T08:08:06;2.85;;;1.65;;
31732;SDS011;18312;51.486;7.144;2022-07-12T08:10:32;3.47;;;1.55;;
31732;SDS011;18312;51.486;7.144;2022-07-12T08:12:59;2.38;;;1.85;;
31732;SDS011;18312;51.486;7.144;2022-07-12T08:15:28;4.10;;;1.60;;
31732;SDS011;18312;51.486;7.144;2022-07-12T08:17:56;4.30;;;1.73;;
31732;SDS011;18312;51.486;7.144;2022-07-12T08:20:23;3.05;;;1.38;;
31732;SDS011;18312;51.486;7.144;2022-07-12T08:22:50;2.35;;;1.55;;
31732;SDS011;18312;51.486;7.144;2022-07-12T08:25:17;2.22;;;1.50;;
31732;SDS011;18312;51.486;7.144;2022-07-12T08:27:43;1.17;;;1.08;;
31732;SDS011;18312;51.486;7.144;2022-07-12T08:30:10;3.58;;;1.63;;
31732;SDS011;18312;51.486;7.144;2022-07-12T08:32:41;2.35;;;1.30;;
31732;SDS011;18312;51.486;7.144;2022-07-12T08:35:09;2.75;;;1.35;;
31732;SDS011;18312;51.486;7.144;2022-07-12T08:37:36;1.80;;;0.98;;
31732;SDS011;18312;51.486;7.144;2022-07-12T08:40:03;1.00;;;0.77;;
31732;SDS011;18312;51.486;7.144;2022-07-12T08:42:31;1.02;;;0.57;;
31732;SDS011;18312;51.486;7.144;2022-07-12T08:44:58;1.10;;;0.82;;
31732;SDS011;18312;51.486;7.144;2022-07-12T08:47:25;1.27;;;1.00;;
31732;SDS011;18312;51.486;7.144;2022-07-12T08:50:15;3.28;;;1.63;;
31732;SDS011;18312;51.486;7.144;2022-07-12T08:52:43;3.50;;;1.23;;
31732;SDS011;18312;51.486;7.144;2022-07-12T08:55:15;3.97;;;1.20;;
31732;SDS011;18312;51.486;7.144;2022-07-12T08:57:46;1.67;;;0.95;;
31732;SDS011;18312;51.486;7.144;2022-07-12T09:00:13;3.33;;;1.23;;
31732;SDS011;18312;51.486;7.144;2022-07-12T09:02:44;2.35;;;1.23;;
31732;SDS011;18312;51.486;7.144;2022-07-12T09:05:18;5.60;;;1.80;;
31732;SDS011;18312;51.486;7.144;2022-07-12T09:07:45;2.17;;;1.02;;
31732;SDS011;18312;51.486;7.144;2022-07-12T09:10:12;3.38;;;1.08;;
31732;SDS011;18312;51.486;7.144;2022-07-12T09:12:40;1.27;;;0.82;;
31732;SDS011;18312;51.486;7.144;2022-07-12T09:15:11;2.38;;;0.95;;
31732;SDS011;18312;51.486;7.144;2022-07-12T09:17:39;3.70;;;1.40;;
31732;SDS011;18312;51.486;7.144;2022-07-12T09:20:08;3.53;;;1.00;;
31732;SDS011;18312;51.486;7.144;2022-07-12T09:22:38;1.02;;;0.65;;
31732;SDS011;18312;51.486;7.144;2022-07-12T09:25:18;1.10;;;0.73;;
31732;SDS011;18312;51.486;7.144;2022-07-12T09:27:51;0.88;;;0.57;;
31732;SDS011;18312;51.486;7.144;2022-07-12T09:30:19;1.95;;;0.82;;
31732;SDS011;18312;51.486;7.144;2022-07-12T09:32:52;2.33;;;0.77;;
31732;SDS011;18312;51.486;7.144;2022-07-12T09:35:40;1.63;;;0.90;;
31732;SDS011;18312;51.486;7.144;2022-07-12T09:38:26;1.00;;;0.50;;
31732;SDS011;18312;51.486;7.144;2022-07-12T09:40:53;1.13;;;1.00;;
31732;SDS011;18312;51.486;7.144;2022-07-12T09:43:22;1.05;;;0.40;;
31732;SDS011;18312;51.486;7.144;2022-07-12T09:45:49;1.50;;;0.70;;
31732;SDS011;18312;51.486;7.144;2022-07-12T09:48:16;0.85;;;0.60;;
31732;SDS011;18312;51.486;7.144;2022-07-12T09:50:46;0.68;;;0.50;;
31732;SDS011;18312;51.486;7.144;2022-07-12T09:55:49;1.83;;;0.52;;
31732;SDS011;18312;51.486;7.144;2022-07-12T09:58:20;2.05;;;0.40;;
31732;SDS011;18312;51.486;7.144;2022-07-12T10:00:50;1.73;;;0.55;;
31732;SDS011;18312;51.486;7.144;2022-07-12T10:03:20;2.77;;;0.60;;
31732;SDS011;18312;51.486;7.144;2022-07-12T10:05:49;0.80;;;0.30;;
31732;SDS011;18312;51.486;7.144;2022-07-12T10:08:19;2.30;;;0.50;;
31732;SDS011;18312;51.486;7.144;2022-07-12T10:10:47;2.15;;;0.82;;
31732;SDS011;18312;51.486;7.144;2022-07-12T10:13:16;0.63;;;0.32;;
31732;SDS011;18312;51.486;7.144;2022-07-12T10:15:45;0.40;;;0.20;;
31732;SDS011;18312;51.486;7.144;2022-07-12T10:18:19;3.63;;;0.40;;
31732;SDS011;18312;51.486;7.144;2022-07-12T10:20:47;3.05;;;0.50;;
31732;SDS011;18312;51.486;7.144;2022-07-12T10:23:28;2.83;;;0.40;;
31732;SDS011;18312;51.486;7.144;2022-07-12T10:26:00;0.45;;;0.43;;
31732;SDS011;18312;51.486;7.144;2022-07-12T10:31:26;2.97;;;0.52;;
31732;SDS011;18312;51.486;7.144;2022-07-12T10:34:14;1.63;;;0.75;;
31732;SDS011;18312;51.486;7.144;2022-07-12T10:37:06;0.45;;;0.40;;
31732;SDS011;18312;51.486;7.144;2022-07-12T10:39:35;0.40;;;0.30;;
31732;SDS011;18312;51.486;7.144;2022-07-12T10:42:16;0.60;;;0.50;;
31732;SDS011;18312;51.486;7.144;2022-07-12T10:44:46;1.35;;;0.43;;
31732;SDS011;18312;51.486;7.144;2022-07-12T10:47:14;0.90;;;0.30;;
31732;SDS011;18312;51.486;7.144;2022-07-12T10:49:45;1.60;;;0.68;;
31732;SDS011;18312;51.486;7.144;2022-07-12T10:52:14;1.00;;;0.50;;
31732;SDS011;18312;51.486;7.144;2022-07-12T10:54:43;0.93;;;0.40;;
31732;SDS011;18312;51.486;7.144;2022-07-12T10:57:16;0.93;;;0.43;;
31732;SDS011;18312;51.486;7.144;2022-07-12T11:00:04;2.55;;;0.32;;
31732;SDS011;18312;51.486;7.144;2022-07-12T11:02:32;2.23;;;0.37;;
31732;SDS011;18312;51.486;7.144;2022-07-12T11:04:59;0.43;;;0.40;;
31732;SDS011;18312;51.486;7.144;2022-07-12T11:07:25;0.40;;;0.40;;
31732;SDS011;18312;51.486;7.144;2022-07-12T11:09:53;0.82;;;0.40;;
31732;SDS011;18312;51.486;7.144;2022-07-12T11:12:26;0.90;;;0.30;;
31732;SDS011;18312;51.486;7.144;2022-07-12T11:14:53;0.73;;;0.50;;
31732;SDS011;18312;51.486;7.144;2022-07-12T11:17:20;0.60;;;0.32;;
31732;SDS011;18312;51.486;7.144;2022-07-12T11:20:02;1.85;;;0.35;;
31732;SDS011;18312;51.486;7.144;2022-07-12T11:22:30;3.72;;;0.70;;
31732;SDS011;18312;51.486;7.144;2022-07-12T11:24:57;1.85;;;0.40;;
31732;SDS011;18312;51.486;7.144;2022-07-12T11:27:26;5.15;;;0.45;;
31732;SDS011;18312;51.486;7.144;2022-07-12T11:29:56;0.88;;;0.30;;
31732;SDS011;18312;51.486;7.144;2022-07-12T11:32:32;3.08;;;1.35;;
31732;SDS011;18312;51.486;7.144;2022-07-12T11:35:00;1.92;;;0.32;;
31732;SDS011;18312;51.486;7.144;2022-07-12T11:37:27;0.73;;;0.40;;
31732;SDS011;18312;51.486;7.144;2022-07-12T11:39:55;0.70;;;0.30;;
31732;SDS011;18312;51.486;7.144;2022-07-12T11:42:22;1.48;;;0.30;;
31732;SDS011;18312;51.486;7.144;2022-07-12T11:44:50;1.27;;;0.30;;
31732;SDS011;18312;51.486;7.144;2022-07-12T11:47:18;0.52;;;0.30;;
31732;SDS011;18312;51.486;7.144;2022-07-12T11:49:46;1.33;;;0.30;;
31732;SDS011;18312;51.486;7.144;2022-07-12T11:52:15;0.30;;;0.20;;
31732;SDS011;18312;51.486;7.144;2022-07-12T11:54:42;0.52;;;0.10;;
31732;SDS011;18312;51.486;7.144;2022-07-12T11:57:09;1.13;;;0.47;;
31732;SDS011;18312;51.486;7.144;2022-07-12T11:59:38;1.45;;;0.40;;
31732;SDS011;18312;51.486;7.144;2022-07-12T12:02:06;0.43;;;0.28;;
31732;SDS011;18312;51.486;7.144;2022-07-12T12:04:43;0.40;;;0.20;;
31732;SDS011;18312;51.486;7.144;2022-07-12T12:07:11;0.43;;;0.30;;
31732;SDS011;18312;51.486;7.144;2022-07-12T12:10:00;3.35;;;0.20;;
31732;SDS011;18312;51.486;7.144;2022-07-12T12:12:34;1.13;;;0.28;;
31732;SDS011;18312;51.486;7.144;2022-07-12T12:15:03;1.10;;;0.40;;
31732;SDS011;18312;51.486;7.144;2022-07-12T12:17:32;2.77;;;0.43;;
31732;SDS011;18312;51.486;7.144;2022-07-12T12:20:07;0.80;;;0.20;;
31732;SDS011;18312;51.486;7.144;2022-07-12T12:22:35;0.17;;;0.13;;
31732;SDS011;18312;51.486;7.144;2022-07-12T12:25:03;1.15;;;0.50;;
31732;SDS011;18312;51.486;7.144;2022-07-12T12:27:31;2.63;;;0.50;;
31732;SDS011;18312;51.486;7.144;2022-07-12T12:30:06;3.05;;;0.40;;
31732;SDS011;18312;51.486;7.144;2022-07-12T12:32:43;2.05;;;0.32;;
31732;SDS011;18312;51.486;7.144;2022-07-12T12:35:14;2.22;;;0.77;;
31732;SDS011;18312;51.486;7.144;2022-07-12T12:37:50;0.85;;;0.40;;
31732;SDS011;18312;51.486;7.144;2022-07-12T12:40:17;0.85;;;0.20;;
31732;SDS011;18312;51.486;7.144;2022-07-12T12:42:45;0.60;;;0.40;;
31732;SDS011;18312;51.486;7.144;2022-07-12T12:45:22;0.90;;;0.20;;
31732;SDS011;18312;51.486;7.144;2022-07-12T12:47:54;0.35;;;0.22;;
31732;SDS011;18312;51.486;7.144;2022-07-12T12:53:08;0.40;;;0.20;;
31732;SDS011;18312;51.486;7.144;2022-07-12T12:55:36;1.30;;;0.50;;
31732;SDS011;18312;51.486;7.144;2022-07-12T12:58:03;1.85;;;0.68;;
31732;SDS011;18312;51.486;7.144;2022-07-12T13:00:30;1.95;;;0.73;;
31732;SDS011;18312;51.486;7.144;2022-07-12T13:02:58;0.85;;;0.60;;
31732;SDS011;18312;51.486;7.144;2022-07-12T13:05:26;1.17;;;0.50;;
31732;SDS011;18312;51.486;7.144;2022-07-12T13:07:53;1.65;;;0.40;;
31732;SDS011;18312;51.486;7.144;2022-07-12T13:10:20;0.90;;;0.40;;
31732;SDS011;18312;51.486;7.144;2022-07-12T13:12:47;0.95;;;0.65;;
31732;SDS011;18312;51.486;7.144;2022-07-12T13:15:14;1.35;;;0.47;;
31732;SDS011;18312;51.486;7.144;2022-07-12T13:17:41;6.95;;;0.55;;
31732;SDS011;18312;51.486;7.144;2022-07-12T13:20:09;2.15;;;0.50;;
31732;SDS011;18312;51.486;7.144;2022-07-12T13:22:38;0.70;;;0.43;;
31732;SDS011;18312;51.486;7.144;2022-07-12T13:25:05;2.45;;;0.50;;
31732;SDS011;18312;51.486;7.144;2022-07-12T13:27:33;1.93;;;0.50;;
31732;SDS011;18312;51.486;7.144;2022-07-12T13:30:00;1.08;;;0.57;;
31732;SDS011;18312;51.486;7.144;2022-07-12T13:32:26;1.00;;;0.50;;
31732;SDS011;18312;51.486;7.144;2022-07-12T13:34:53;1.33;;;0.45;;
31732;SDS011;18312;51.486;7.144;2022-07-12T13:37:21;2.53;;;0.52;;
31732;SDS011;18312;51.486;7.144;2022-07-12T13:39:48;1.00;;;0.50;;
31732;SDS011;18312;51.486;7.144;2022-07-12T13:42:32;1.15;;;0.60;;
31732;SDS011;18312;51.486;7.144;2022-07-12T13:44:59;1.30;;;0.40;;
31732;SDS011;18312;51.486;7.144;2022-07-12T13:47:26;0.63;;;0.30;;
31732;SDS011;18312;51.486;7.144;2022-07-12T13:49:53;2.33;;;0.50;;
31732;SDS011;18312;51.486;7.144;2022-07-12T13:52:21;1.45;;;0.50;;
31732;SDS011;18312;51.486;7.144;2022-07-12T13:54:48;0.68;;;0.45;;
31732;SDS011;18312;51.486;7.144;2022-07-12T13:57:14;0.47;;;0.30;;
31732;SDS011;18312;51.486;7.144;2022-07-12T13:59:41;0.50;;;0.50;;
31732;SDS011;18312;51.486;7.144;2022-07-12T14:02:08;1.45;;;0.50;;
31732;SDS011;18312;51.486;7.144;2022-07-12T14:04:35;3.03;;;0.60;;
31732;SDS011;18312;51.486;7.144;2022-07-12T14:07:02;1.33;;;0.55;;
31732;SDS011;18312;51.486;7.144;2022-07-12T14:09:30;1.77;;;0.82;;
31732;SDS011;18312;51.486;7.144;2022-07-12T14:11:57;1.50;;;0.60;;
31732;SDS011;18312;51.486;7.144;2022-07-12T14:14:26;0.90;;;0.57;;
31732;SDS011;18312;51.486;7.144;2022-07-12T14:17:07;1.27;;;0.73;;
31732;SDS011;18312;51.486;7.144;2022-07-12T14:19:35;0.85;;;0.40;;
31732;SDS011;18312;51.486;7.144;2022-07-12T14:22:02;1.52;;;0.50;;
31732;SDS011;18312;51.486;7.144;2022-07-12T14:24:30;1.10;;;0.70;;
31732;SDS011;18312;51.486;7.144;2022-07-12T14:26:57;0.50;;;0.40;;
31732;SDS011;18312;51.486;7.144;2022-07-12T14:29:24;4.82;;;0.55;;
31732;SDS011;18312;51.486;7.144;2022-07-12T14:31:50;1.33;;;0.57;;
31732;SDS011;18312;51.486;7.144;2022-07-12T14:34:17;4.35;;;0.47;;
31732;SDS011;18312;51.486;7.144;2022-07-12T14:36:44;1.08;;;0.50;;
31732;SDS011;18312;51.486;7.144;2022-07-12T14:39:11;1.85;;;0.50;;
31732;SDS011;18312;51.486;7.144;2022-07-12T14:41:39;1.60;;;0.60;;
31732;SDS011;18312;51.486;7.144;2022-07-12T14:44:08;1.40;;;0.77;;
31732;SDS011;18312;51.486;7.144;2022-07-12T14:46:34;1.17;;;0.60;;
31732;SDS011;18312;51.486;7.144;2022-07-12T14:49:02;1.95;;;0.70;;
31732;SDS011;18312;51.486;7.144;2022-07-12T14:51:30;0.57;;;0.55;;
31732;SDS011;18312;51.486;7.144;2022-07-12T14:53:57;0.75;;;0.70;;
31732;SDS011;18312;51.486;7.144;2022-07-12T14:56:23;1.08;;;0.40;;
31732;SDS011;18312;51.486;7.144;2022-07-12T14:58:51;1.23;;;0.70;;
31732;SDS011;18312;51.486;7.144;2022-07-12T15:01:18;1.20;;;0.52;;
31732;SDS011;18312;51.486;7.144;2022-07-12T15:03:45;3.67;;;1.10;;